• Join FlightAware (Why Join?)
  • Login
  • US Flag 
08:16PM EDT


 

Airport Tracker/Info


-or-


 

Live Flight TrackerFlight Track Log ✈ SWA920 ✈ 25-Apr-2013 ✈ KBWI - KBOS

Flight Track Log - Related Links

Times and Time Zones

All times are in EDT time to prevent confusion due to time zone crossing. See the SWA920 flight status page for this flight to view local times or setup timezone preferences in your user account.

Time Position Orientation Groundspeed Altitude Reporting Facility
EDT Latitude Longitude Course Direction KTS MPH feet Rate Location/Type
10:30PM 39.1833 -76.7333 108° East 196 226 2,300  Level Potomac TRACON
10:31PM 39.1333 -76.7333 180° South 229 264 5,200 2,280 Climbing Potomac TRACON
10:32PM 39.1000 -76.6667 123° Southeast 287 330 6,900 1,680 Climbing Potomac TRACON
10:33PM 39.1167 -76.5667 78° East 297 342 8,600 2,640 Climbing Potomac TRACON
10:36PM 39.1656 -76.5959 108° East  Level FlightAware Approximate
10:36PM 39.0736 -76.3322 103° East 315 362 15,300  Level Washington Center
10:37PM 39.0283 -76.2303 120° Southeast 319 367 17,000 1,740 Climbing Washington Center
10:38PM 39.0728 -76.1156 63° Northeast 305 351 18,800 1,680 Climbing Washington Center
10:39PM 39.1356 -75.9931 57° Northeast 347 399 20,400 600 Climbing Washington Center
10:40PM 39.2006 -75.8700 56° Northeast 378 435 20,000 -240 Descending Washington Center
10:41PM 39.2800 -75.7658 45° Northeast 393 452 20,000 240 Level Washington Center
10:42PM 39.3614 -75.6614 45° Northeast 398 458 20,500 1,500 Climbing Washington Center
10:43PM 39.4469 -75.5539 44° Northeast 410 472 23,000 2,400 Climbing Washington Center
10:44PM 39.5322 -75.4408 46° Northeast 423 487 25,400 2,160 Climbing Washington Center
10:45PM 39.6258 -75.3194 45° Northeast 441 507 27,400 2,100 Climbing Washington Center
10:46PM 39.7192 -75.1922 46° Northeast 465 535 29,600 2,400 Climbing Washington Center
10:46PM 39.7864 -75.0906 49° Northeast 479 551 31,800 1,800 Climbing New York Center
10:47PM 39.8786 -74.9583 48° Northeast 485 558 33,000 540 Climbing New York Center
10:48PM 39.9728 -74.8283 47° Northeast 485 558 33,000  Level New York Center
10:49PM 40.0717 -74.6850 48° Northeast 485 558 33,000  Level New York Center
10:50PM 40.1614 -74.5542 48° Northeast 485 558 33,000  Level New York Center
10:51PM 40.2589 -74.4317 44° Northeast 479 551 33,000  Level New York Center
10:52PM 40.3667 -74.3203 38° Northeast 479 551 33,000 -960 Level New York Center
10:53PM 40.4700 -74.2031 41° Northeast 484 557 31,200 -1,200 Descending New York Center
10:56PM 40.6619 -73.8328 56° Northeast 490 564 28,700 -1,080 Descending Boston Center
10:57PM 40.7367 -73.6836 56° Northeast 490 564 27,400 -1,620 Descending Boston Center
10:59PM 40.8833 -73.4036 55° Northeast 465 535 24,000 -1,140 Descending Boston Center
11:00PM 40.9656 -73.2839 48° Northeast 451 519 24,000 -420 Level Boston Center
11:01PM 41.0456 -73.1639 49° Northeast 439 505 23,200 -540 Descending Boston Center
11:02PM 41.1275 -73.0408 48° Northeast 434 499 23,000 -120 Descending Boston Center
11:03PM 41.2072 -72.9203 49° Northeast 434 499 23,000  Level Boston Center
11:04PM 41.2786 -72.7633 59° Northeast 445 512 23,000  Level Boston Center
11:05PM 41.3292 -72.6169 65° Northeast 445 512 23,000  Level Boston Center
11:06PM 41.3833 -72.4678 64° Northeast 440 506 23,000  Level Boston Center
11:07PM 41.4375 -72.3211 64° Northeast 440 506 23,000 -1,260 Level Boston Center
11:09PM 41.5431 -72.0381 63° Northeast 446 513 19,300 -2,220 Descending Boston Center
11:11PM 41.6028 -71.8222 71° East  Level FlightAware Approximate
11:12PM 41.6761 -71.5897 71° East 412 474 12,000  Level Boston Center
11:13PM 41.7128 -71.4722 67° East 386 444 11,000 -540 Descending Boston Center
11:14PM 41.7636 -71.3547 60° Northeast 343 395 11,000 -240 Level Boston Center
11:16PM 41.8958 -71.2325 35° Northeast 279 321 10,300 -780 Descending Boston Center
11:17PM 41.9581 -71.2006 21° North 274 315 8,800 -1,140 Descending Boston Center
11:19PM 42.0867 -71.1392 20° North 235 270 7,000 -1,080 Descending Boston Center
11:20PM 42.1467 -71.1072 22° Northeast 211 243 5,600 -1,320 Descending Boston Center
11:21PM 42.1922 -71.0867 18° North 198 228 4,400 -1,560 Descending Boston Center
11:22PM 42.2500 -71.0667 14° North 188 216 2,600 -1,440 Descending KA90
11:23PM 42.3000 -71.0333 26° Northeast 153 176 1,600 -960 Descending KA90
11:24PM 42.3333 -71.0167 20° North 136 157 700 3,060 Descending KA90
11:26PM 42.3975 -70.9922 16° North 144 166 11,000 4,980 Climbing Boston Center
11:28PM 42.3630 -71.0064 200° South  Level Estimated
11:35PM 42.3630 -71.0064 200° South  Level Estimated
11:36PM 42.3630 -71.0064 200° South  Level Estimated
11:37PM 42.3630 -71.0064 200° South  Level Estimated
11:38PM 42.3630 -71.0064 200° South  Level Estimated
11:39PM 42.3630 -71.0064 200° South  Level Estimated
11:40PM 42.3630 -71.0064 200° South  Level Estimated
11:41PM 42.3630 -71.0064 200° South  Level Estimated
11:42PM 42.3630 -71.0064 200° South  Level Estimated
11:43PM 42.3630 -71.0064 200° South  Level Estimated